sensor_id;sensor_type;location;lat;lon;timestamp;temperature;humidity
23073;DHT22;34865;51.046;3.732;2022-08-19T00:00:08;20.30;99.90
23073;DHT22;34865;51.046;3.732;2022-08-19T00:02:34;20.10;99.90
23073;DHT22;34865;51.046;3.732;2022-08-19T00:05:01;20.00;99.90
23073;DHT22;34865;51.046;3.732;2022-08-19T00:07:27;20.20;99.90
23073;DHT22;34865;51.046;3.732;2022-08-19T00:09:53;20.00;99.90
23073;DHT22;34865;51.046;3.732;2022-08-19T00:12:19;19.90;99.90
23073;DHT22;34865;51.046;3.732;2022-08-19T00:14:44;19.80;99.90
23073;DHT22;34865;51.046;3.732;2022-08-19T00:17:10;19.80;99.90
23073;DHT22;34865;51.046;3.732;2022-08-19T00:19:36;19.80;99.90
23073;DHT22;34865;51.046;3.732;2022-08-19T00:22:03;19.70;99.90
23073;DHT22;34865;51.046;3.732;2022-08-19T00:24:28;19.80;99.90
23073;DHT22;34865;51.046;3.732;2022-08-19T00:26:55;19.60;99.90
23073;DHT22;34865;51.046;3.732;2022-08-19T00:29:23;19.60;99.90
23073;DHT22;34865;51.046;3.732;2022-08-19T00:31:50;19.80;99.90
23073;DHT22;34865;51.046;3.732;2022-08-19T00:34:18;20.10;99.90
23073;DHT22;34865;51.046;3.732;2022-08-19T00:36:45;20.20;99.90
23073;DHT22;34865;51.046;3.732;2022-08-19T00:39:11;20.10;99.90
23073;DHT22;34865;51.046;3.732;2022-08-19T00:41:37;20.00;99.90
23073;DHT22;34865;51.046;3.732;2022-08-19T00:44:09;19.80;99.90
23073;DHT22;34865;51.046;3.732;2022-08-19T00:46:38;19.70;99.90
23073;DHT22;34865;51.046;3.732;2022-08-19T00:49:20;20.00;99.90
23073;DHT22;34865;51.046;3.732;2022-08-19T00:51:51;20.10;99.90
23073;DHT22;34865;51.046;3.732;2022-08-19T00:54:19;20.20;99.90
23073;DHT22;34865;51.046;3.732;2022-08-19T00:56:46;20.20;99.90
23073;DHT22;34865;51.046;3.732;2022-08-19T00:59:14;20.20;99.90
23073;DHT22;34865;51.046;3.732;2022-08-19T01:01:42;20.20;99.90
23073;DHT22;34865;51.046;3.732;2022-08-19T01:04:08;20.20;99.90
23073;DHT22;34865;51.046;3.732;2022-08-19T01:06:37;20.20;99.90
23073;DHT22;34865;51.046;3.732;2022-08-19T01:09:04;20.10;99.90
23073;DHT22;34865;51.046;3.732;2022-08-19T01:11:32;19.80;99.90
23073;DHT22;34865;51.046;3.732;2022-08-19T01:13:58;19.60;99.90
23073;DHT22;34865;51.046;3.732;2022-08-19T01:16:27;19.70;99.90
23073;DHT22;34865;51.046;3.732;2022-08-19T01:18:53;19.60;99.90
23073;DHT22;34865;51.046;3.732;2022-08-19T01:23:53;19.80;99.90
23073;DHT22;34865;51.046;3.732;2022-08-19T01:26:22;19.90;99.90
23073;DHT22;34865;51.046;3.732;2022-08-19T01:28:51;19.80;99.90
23073;DHT22;34865;51.046;3.732;2022-08-19T01:31:21;19.60;99.90
23073;DHT22;34865;51.046;3.732;2022-08-19T01:33:49;19.70;99.90
23073;DHT22;34865;51.046;3.732;2022-08-19T01:36:27;19.60;99.90
23073;DHT22;34865;51.046;3.732;2022-08-19T01:38:53;19.70;99.90
23073;DHT22;34865;51.046;3.732;2022-08-19T01:41:19;19.70;99.90
23073;DHT22;34865;51.046;3.732;2022-08-19T01:43:45;19.70;99.90
23073;DHT22;34865;51.046;3.732;2022-08-19T01:46:10;19.70;99.90
23073;DHT22;34865;51.046;3.732;2022-08-19T01:48:41;19.30;99.90
23073;DHT22;34865;51.046;3.732;2022-08-19T01:51:09;19.20;99.90
23073;DHT22;34865;51.046;3.732;2022-08-19T01:53:35;19.20;99.90
23073;DHT22;34865;51.046;3.732;2022-08-19T01:56:01;19.20;99.90
23073;DHT22;34865;51.046;3.732;2022-08-19T01:58:33;19.30;99.90
23073;DHT22;34865;51.046;3.732;2022-08-19T02:01:01;19.40;99.90
23073;DHT22;34865;51.046;3.732;2022-08-19T02:03:27;19.40;99.90
23073;DHT22;34865;51.046;3.732;2022-08-19T02:05:59;19.40;99.90
23073;DHT22;34865;51.046;3.732;2022-08-19T02:08:33;19.40;99.90
23073;DHT22;34865;51.046;3.732;2022-08-19T02:11:00;19.30;99.90
23073;DHT22;34865;51.046;3.732;2022-08-19T02:13:26;19.20;99.90
23073;DHT22;34865;51.046;3.732;2022-08-19T02:15:52;19.20;99.90
23073;DHT22;34865;51.046;3.732;2022-08-19T02:18:17;19.20;99.90
23073;DHT22;34865;51.046;3.732;2022-08-19T02:20:44;19.20;99.90
23073;DHT22;34865;51.046;3.732;2022-08-19T02:23:11;19.20;99.90
23073;DHT22;34865;51.046;3.732;2022-08-19T02:25:37;19.10;99.90
23073;DHT22;34865;51.046;3.732;2022-08-19T02:28:04;19.10;99.90
23073;DHT22;34865;51.046;3.732;2022-08-19T02:30:30;19.10;99.90
23073;DHT22;34865;51.046;3.732;2022-08-19T02:32:55;18.90;99.90
23073;DHT22;34865;51.046;3.732;2022-08-19T02:35:21;18.70;99.90
23073;DHT22;34865;51.046;3.732;2022-08-19T02:37:47;18.60;99.90
23073;DHT22;34865;51.046;3.732;2022-08-19T02:40:33;18.50;99.90
23073;DHT22;34865;51.046;3.732;2022-08-19T02:43:07;18.80;99.90
23073;DHT22;34865;51.046;3.732;2022-08-19T02:45:38;18.80;99.90
23073;DHT22;34865;51.046;3.732;2022-08-19T02:48:05;18.90;99.90
23073;DHT22;34865;51.046;3.732;2022-08-19T02:50:31;19.00;99.90
23073;DHT22;34865;51.046;3.732;2022-08-19T02:52:57;18.90;99.90
23073;DHT22;34865;51.046;3.732;2022-08-19T02:55:23;18.50;99.90
23073;DHT22;34865;51.046;3.732;2022-08-19T02:57:48;18.70;99.90
23073;DHT22;34865;51.046;3.732;2022-08-19T03:00:14;18.90;99.90
23073;DHT22;34865;51.046;3.732;2022-08-19T03:02:40;19.00;99.90
23073;DHT22;34865;51.046;3.732;2022-08-19T03:05:08;19.10;99.90
23073;DHT22;34865;51.046;3.732;2022-08-19T03:07:35;18.90;99.90
23073;DHT22;34865;51.046;3.732;2022-08-19T03:10:01;18.80;99.90
23073;DHT22;34865;51.046;3.732;2022-08-19T03:12:26;18.80;99.90
23073;DHT22;34865;51.046;3.732;2022-08-19T03:14:52;18.70;99.90
23073;DHT22;34865;51.046;3.732;2022-08-19T03:17:18;18.50;99.90
23073;DHT22;34865;51.046;3.732;2022-08-19T03:19:44;18.50;99.90
23073;DHT22;34865;51.046;3.732;2022-08-19T03:22:10;18.60;99.90
23073;DHT22;34865;51.046;3.732;2022-08-19T03:24:35;18.70;99.90
23073;DHT22;34865;51.046;3.732;2022-08-19T03:27:01;18.80;99.90
23073;DHT22;34865;51.046;3.732;2022-08-19T03:29:30;18.60;99.90
23073;DHT22;34865;51.046;3.732;2022-08-19T03:31:58;18.60;99.90
23073;DHT22;34865;51.046;3.732;2022-08-19T03:34:28;18.90;99.90
23073;DHT22;34865;51.046;3.732;2022-08-19T03:36:55;19.00;99.90
23073;DHT22;34865;51.046;3.732;2022-08-19T03:39:23;18.70;99.90
23073;DHT22;34865;51.046;3.732;2022-08-19T03:41:50;18.40;99.90
23073;DHT22;34865;51.046;3.732;2022-08-19T03:44:19;18.20;99.90
23073;DHT22;34865;51.046;3.732;2022-08-19T03:46:56;18.20;99.90
23073;DHT22;34865;51.046;3.732;2022-08-19T03:49:25;18.50;99.90
23073;DHT22;34865;51.046;3.732;2022-08-19T03:51:53;18.60;99.90
23073;DHT22;34865;51.046;3.732;2022-08-19T03:54:21;18.50;99.90
23073;DHT22;34865;51.046;3.732;2022-08-19T03:56:50;18.40;99.90
23073;DHT22;34865;51.046;3.732;2022-08-19T03:59:23;18.30;99.90
23073;DHT22;34865;51.046;3.732;2022-08-19T04:01:52;18.50;99.90
23073;DHT22;34865;51.046;3.732;2022-08-19T04:04:17;18.50;99.90
23073;DHT22;34865;51.046;3.732;2022-08-19T04:06:43;18.60;99.90
23073;DHT22;34865;51.046;3.732;2022-08-19T04:09:10;18.50;99.90
23073;DHT22;34865;51.046;3.732;2022-08-19T04:11:45;18.60;99.90
23073;DHT22;34865;51.046;3.732;2022-08-19T04:14:14;18.50;99.90
23073;DHT22;34865;51.046;3.732;2022-08-19T04:16:39;18.40;99.90
23073;DHT22;34865;51.046;3.732;2022-08-19T04:19:06;18.30;99.90
23073;DHT22;34865;51.046;3.732;2022-08-19T04:21:32;18.30;99.90
23073;DHT22;34865;51.046;3.732;2022-08-19T04:23:59;18.20;99.90
23073;DHT22;34865;51.046;3.732;2022-08-19T04:26:27;18.10;99.90
23073;DHT22;34865;51.046;3.732;2022-08-19T04:28:53;18.00;99.90
23073;DHT22;34865;51.046;3.732;2022-08-19T04:31:26;18.10;99.90
23073;DHT22;34865;51.046;3.732;2022-08-19T04:33:59;18.30;99.90
23073;DHT22;34865;51.046;3.732;2022-08-19T04:36:32;18.40;99.90
23073;DHT22;34865;51.046;3.732;2022-08-19T04:39:02;18.40;99.90
23073;DHT22;34865;51.046;3.732;2022-08-19T04:41:28;18.60;99.90
23073;DHT22;34865;51.046;3.732;2022-08-19T04:44:13;18.60;99.90
23073;DHT22;34865;51.046;3.732;2022-08-19T04:46:39;18.70;99.90
23073;DHT22;34865;51.046;3.732;2022-08-19T04:49:06;18.50;99.90
23073;DHT22;34865;51.046;3.732;2022-08-19T04:51:35;18.40;99.90
23073;DHT22;34865;51.046;3.732;2022-08-19T04:54:02;18.30;99.90
23073;DHT22;34865;51.046;3.732;2022-08-19T04:56:28;18.20;99.90
23073;DHT22;34865;51.046;3.732;2022-08-19T04:58:55;18.40;99.90
23073;DHT22;34865;51.046;3.732;2022-08-19T05:01:24;18.60;99.90
23073;DHT22;34865;51.046;3.732;2022-08-19T05:03:50;18.50;99.90
23073;DHT22;34865;51.046;3.732;2022-08-19T05:06:17;18.40;99.90
23073;DHT22;34865;51.046;3.732;2022-08-19T05:08:44;18.30;99.90
23073;DHT22;34865;51.046;3.732;2022-08-19T05:11:16;18.30;99.90
23073;DHT22;34865;51.046;3.732;2022-08-19T05:13:43;18.60;99.90
23073;DHT22;34865;51.046;3.732;2022-08-19T05:16:10;18.50;99.90
23073;DHT22;34865;51.046;3.732;2022-08-19T05:18:36;18.40;99.90
23073;DHT22;34865;51.046;3.732;2022-08-19T05:21:22;18.40;99.90
23073;DHT22;34865;51.046;3.732;2022-08-19T05:24:06;18.50;99.90
23073;DHT22;34865;51.046;3.732;2022-08-19T05:26:33;18.80;99.90
23073;DHT22;34865;51.046;3.732;2022-08-19T05:29:00;18.90;99.90
23073;DHT22;34865;51.046;3.732;2022-08-19T05:31:25;18.90;99.90
23073;DHT22;34865;51.046;3.732;2022-08-19T05:33:51;18.90;99.90
23073;DHT22;34865;51.046;3.732;2022-08-19T05:36:16;19.10;99.90
23073;DHT22;34865;51.046;3.732;2022-08-19T05:38:44;19.30;99.90
23073;DHT22;34865;51.046;3.732;2022-08-19T05:41:12;19.40;99.90
23073;DHT22;34865;51.046;3.732;2022-08-19T05:43:38;19.50;99.90
23073;DHT22;34865;51.046;3.732;2022-08-19T05:46:05;19.70;99.90
23073;DHT22;34865;51.046;3.732;2022-08-19T05:48:34;19.60;99.90
23073;DHT22;34865;51.046;3.732;2022-08-19T05:51:07;19.50;99.90
23073;DHT22;34865;51.046;3.732;2022-08-19T05:53:34;19.40;99.90
23073;DHT22;34865;51.046;3.732;2022-08-19T05:56:05;19.60;99.90
23073;DHT22;34865;51.046;3.732;2022-08-19T05:58:30;19.80;99.90
23073;DHT22;34865;51.046;3.732;2022-08-19T06:00:58;19.90;99.90
23073;DHT22;34865;51.046;3.732;2022-08-19T06:03:30;19.80;99.90
23073;DHT22;34865;51.046;3.732;2022-08-19T06:05:56;19.80;99.90
23073;DHT22;34865;51.046;3.732;2022-08-19T06:08:21;19.80;99.90
23073;DHT22;34865;51.046;3.732;2022-08-19T06:10:47;19.90;99.90
23073;DHT22;34865;51.046;3.732;2022-08-19T06:13:13;20.00;99.90
23073;DHT22;34865;51.046;3.732;2022-08-19T06:15:39;19.90;99.90
23073;DHT22;34865;51.046;3.732;2022-08-19T06:18:06;20.00;99.90
23073;DHT22;34865;51.046;3.732;2022-08-19T06:20:32;20.10;99.90
23073;DHT22;34865;51.046;3.732;2022-08-19T06:23:00;20.10;99.90
23073;DHT22;34865;51.046;3.732;2022-08-19T06:25:26;20.10;99.90
23073;DHT22;34865;51.046;3.732;2022-08-19T06:27:51;20.20;99.90
23073;DHT22;34865;51.046;3.732;2022-08-19T06:30:18;20.50;99.90
23073;DHT22;34865;51.046;3.732;2022-08-19T06:32:43;20.60;99.90
23073;DHT22;34865;51.046;3.732;2022-08-19T06:35:09;20.70;99.90
23073;DHT22;34865;51.046;3.732;2022-08-19T06:37:36;21.00;99.90
23073;DHT22;34865;51.046;3.732;2022-08-19T06:40:02;21.50;99.90
23073;DHT22;34865;51.046;3.732;2022-08-19T06:42:28;21.60;99.90
23073;DHT22;34865;51.046;3.732;2022-08-19T06:44:54;21.80;99.90
23073;DHT22;34865;51.046;3.732;2022-08-19T06:47:21;21.90;99.90
23073;DHT22;34865;51.046;3.732;2022-08-19T06:49:47;22.00;99.90
23073;DHT22;34865;51.046;3.732;2022-08-19T06:52:13;21.90;99.90
23073;DHT22;34865;51.046;3.732;2022-08-19T06:54:40;21.90;99.90
23073;DHT22;34865;51.046;3.732;2022-08-19T06:57:07;21.70;99.90
23073;DHT22;34865;51.046;3.732;2022-08-19T06:59:34;21.60;99.90
23073;DHT22;34865;51.046;3.732;2022-08-19T07:02:04;21.70;99.90
23073;DHT22;34865;51.046;3.732;2022-08-19T07:04:31;21.50;99.90
23073;DHT22;34865;51.046;3.732;2022-08-19T07:07:12;21.50;99.90
23073;DHT22;34865;51.046;3.732;2022-08-19T07:09:42;21.30;99.90
23073;DHT22;34865;51.046;3.732;2022-08-19T07:12:11;21.30;99.90
23073;DHT22;34865;51.046;3.732;2022-08-19T07:14:39;21.30;99.90
23073;DHT22;34865;51.046;3.732;2022-08-19T07:17:07;21.30;99.90
23073;DHT22;34865;51.046;3.732;2022-08-19T07:19:34;21.20;99.90
23073;DHT22;34865;51.046;3.732;2022-08-19T07:22:02;21.20;99.90
23073;DHT22;34865;51.046;3.732;2022-08-19T07:24:28;21.20;99.90
23073;DHT22;34865;51.046;3.732;2022-08-19T07:26:57;21.30;99.90
23073;DHT22;34865;51.046;3.732;2022-08-19T07:29:31;21.10;99.90
23073;DHT22;34865;51.046;3.732;2022-08-19T07:31:58;21.00;99.90
23073;DHT22;34865;51.046;3.732;2022-08-19T07:34:25;21.10;99.90
23073;DHT22;34865;51.046;3.732;2022-08-19T07:36:52;21.20;99.90
23073;DHT22;34865;51.046;3.732;2022-08-19T07:39:24;21.20;99.90
23073;DHT22;34865;51.046;3.732;2022-08-19T07:41:51;21.40;99.90
23073;DHT22;34865;51.046;3.732;2022-08-19T07:44:17;21.50;99.90
23073;DHT22;34865;51.046;3.732;2022-08-19T07:46:47;21.60;99.90
23073;DHT22;34865;51.046;3.732;2022-08-19T07:49:14;21.80;99.90
23073;DHT22;34865;51.046;3.732;2022-08-19T07:51:55;21.90;99.90
23073;DHT22;34865;51.046;3.732;2022-08-19T07:54:24;22.00;99.90
23073;DHT22;34865;51.046;3.732;2022-08-19T07:56:58;22.00;99.90
23073;DHT22;34865;51.046;3.732;2022-08-19T07:59:24;21.90;99.90
23073;DHT22;34865;51.046;3.732;2022-08-19T08:01:50;21.90;99.90
23073;DHT22;34865;51.046;3.732;2022-08-19T08:04:18;21.90;99.90
23073;DHT22;34865;51.046;3.732;2022-08-19T08:07:03;21.80;99.90
23073;DHT22;34865;51.046;3.732;2022-08-19T08:09:47;21.70;99.90
23073;DHT22;34865;51.046;3.732;2022-08-19T08:12:25;21.70;99.90
23073;DHT22;34865;51.046;3.732;2022-08-19T08:14:56;21.70;99.90
23073;DHT22;34865;51.046;3.732;2022-08-19T08:17:25;21.80;99.90
23073;DHT22;34865;51.046;3.732;2022-08-19T08:19:52;22.00;99.90
23073;DHT22;34865;51.046;3.732;2022-08-19T08:22:20;21.80;99.90
23073;DHT22;34865;51.046;3.732;2022-08-19T08:25:15;21.80;99.90
23073;DHT22;34865;51.046;3.732;2022-08-19T08:27:43;21.80;99.90
23073;DHT22;34865;51.046;3.732;2022-08-19T08:30:11;21.70;99.90
23073;DHT22;34865;51.046;3.732;2022-08-19T08:32:38;21.80;99.90
23073;DHT22;34865;51.046;3.732;2022-08-19T08:35:11;21.70;99.90
23073;DHT22;34865;51.046;3.732;2022-08-19T08:37:37;21.80;99.90
23073;DHT22;34865;51.046;3.732;2022-08-19T08:40:21;21.90;99.90
23073;DHT22;34865;51.046;3.732;2022-08-19T08:43:02;22.10;99.90
23073;DHT22;34865;51.046;3.732;2022-08-19T08:45:30;22.10;99.90
23073;DHT22;34865;51.046;3.732;2022-08-19T08:48:02;22.10;99.90
23073;DHT22;34865;51.046;3.732;2022-08-19T08:50:39;22.20;99.90
23073;DHT22;34865;51.046;3.732;2022-08-19T08:53:16;22.30;99.90
23073;DHT22;34865;51.046;3.732;2022-08-19T08:55:43;22.20;99.90
23073;DHT22;34865;51.046;3.732;2022-08-19T08:58:15;22.20;99.90
23073;DHT22;34865;51.046;3.732;2022-08-19T09:00:48;22.40;99.90
23073;DHT22;34865;51.046;3.732;2022-08-19T09:03:20;22.40;99.90
23073;DHT22;34865;51.046;3.732;2022-08-19T09:11:18;22.60;99.90
23073;DHT22;34865;51.046;3.732;2022-08-19T09:16:20;22.70;99.90
23073;DHT22;34865;51.046;3.732;2022-08-19T09:18:51;22.70;99.90
23073;DHT22;34865;51.046;3.732;2022-08-19T09:21:20;22.50;99.90
23073;DHT22;34865;51.046;3.732;2022-08-19T09:23:48;22.30;99.90
23073;DHT22;34865;51.046;3.732;2022-08-19T09:26:16;22.30;99.90
23073;DHT22;34865;51.046;3.732;2022-08-19T09:28:46;22.60;99.90
23073;DHT22;34865;51.046;3.732;2022-08-19T09:31:15;23.00;99.90
23073;DHT22;34865;51.046;3.732;2022-08-19T09:33:45;23.50;99.90
23073;DHT22;34865;51.046;3.732;2022-08-19T09:36:14;24.00;99.90
23073;DHT22;34865;51.046;3.732;2022-08-19T09:38:41;24.10;99.90
23073;DHT22;34865;51.046;3.732;2022-08-19T09:41:13;24.30;99.90
23073;DHT22;34865;51.046;3.732;2022-08-19T09:43:40;24.60;99.90
23073;DHT22;34865;51.046;3.732;2022-08-19T09:46:07;25.40;99.90
23073;DHT22;34865;51.046;3.732;2022-08-19T09:48:37;25.50;99.90
23073;DHT22;34865;51.046;3.732;2022-08-19T09:51:09;25.80;99.90
23073;DHT22;34865;51.046;3.732;2022-08-19T09:53:36;25.90;99.90
23073;DHT22;34865;51.046;3.732;2022-08-19T09:56:02;25.90;99.90
23073;DHT22;34865;51.046;3.732;2022-08-19T09:58:28;25.50;99.90
23073;DHT22;34865;51.046;3.732;2022-08-19T10:00:56;25.20;99.90
23073;DHT22;34865;51.046;3.732;2022-08-19T10:03:22;24.90;99.90
23073;DHT22;34865;51.046;3.732;2022-08-19T10:05:48;24.70;99.90
23073;DHT22;34865;51.046;3.732;2022-08-19T10:08:17;24.20;99.90
23073;DHT22;34865;51.046;3.732;2022-08-19T10:10:43;24.20;99.90
23073;DHT22;34865;51.046;3.732;2022-08-19T10:13:10;23.90;99.90
23073;DHT22;34865;51.046;3.732;2022-08-19T10:15:36;23.70;99.90
23073;DHT22;34865;51.046;3.732;2022-08-19T10:18:04;23.70;99.90
23073;DHT22;34865;51.046;3.732;2022-08-19T10:20:30;23.60;99.90
23073;DHT22;34865;51.046;3.732;2022-08-19T10:22:56;23.50;99.90
23073;DHT22;34865;51.046;3.732;2022-08-19T10:25:21;24.00;99.90
23073;DHT22;34865;51.046;3.732;2022-08-19T10:27:47;24.10;99.90
23073;DHT22;34865;51.046;3.732;2022-08-19T10:30:14;24.20;99.90
23073;DHT22;34865;51.046;3.732;2022-08-19T10:32:40;24.30;99.90
23073;DHT22;34865;51.046;3.732;2022-08-19T10:35:06;24.60;99.90
23073;DHT22;34865;51.046;3.732;2022-08-19T10:37:35;24.80;99.90
23073;DHT22;34865;51.046;3.732;2022-08-19T10:40:03;24.80;99.90
23073;DHT22;34865;51.046;3.732;2022-08-19T10:42:29;24.80;99.90
23073;DHT22;34865;51.046;3.732;2022-08-19T10:44:56;24.70;99.90
23073;DHT22;34865;51.046;3.732;2022-08-19T10:47:22;24.40;99.90
23073;DHT22;34865;51.046;3.732;2022-08-19T10:49:49;24.30;99.90
23073;DHT22;34865;51.046;3.732;2022-08-19T10:52:33;24.20;99.90
23073;DHT22;34865;51.046;3.732;2022-08-19T10:55:03;24.10;99.90
23073;DHT22;34865;51.046;3.732;2022-08-19T10:57:48;24.00;99.90
23073;DHT22;34865;51.046;3.732;2022-08-19T11:00:14;24.30;99.90
23073;DHT22;34865;51.046;3.732;2022-08-19T11:02:40;24.30;99.90
23073;DHT22;34865;51.046;3.732;2022-08-19T11:05:07;24.50;99.90
23073;DHT22;34865;51.046;3.732;2022-08-19T11:07:37;24.70;99.90
23073;DHT22;34865;51.046;3.732;2022-08-19T11:10:04;24.80;99.90
23073;DHT22;34865;51.046;3.732;2022-08-19T11:12:30;24.70;99.90
23073;DHT22;34865;51.046;3.732;2022-08-19T11:14:55;24.70;99.90
23073;DHT22;34865;51.046;3.732;2022-08-19T11:17:21;24.80;99.90
23073;DHT22;34865;51.046;3.732;2022-08-19T11:19:50;24.90;99.90
23073;DHT22;34865;51.046;3.732;2022-08-19T11:22:16;24.90;99.90
23073;DHT22;34865;51.046;3.732;2022-08-19T11:24:42;24.70;99.90
23073;DHT22;34865;51.046;3.732;2022-08-19T11:27:09;24.60;99.90
23073;DHT22;34865;51.046;3.732;2022-08-19T11:29:37;24.40;99.90
23073;DHT22;34865;51.046;3.732;2022-08-19T11:32:06;24.40;99.90
23073;DHT22;34865;51.046;3.732;2022-08-19T11:34:33;24.40;99.90
23073;DHT22;34865;51.046;3.732;2022-08-19T11:37:01;24.60;99.90
23073;DHT22;34865;51.046;3.732;2022-08-19T11:39:29;24.50;99.90
23073;DHT22;34865;51.046;3.732;2022-08-19T11:41:57;24.60;99.90
23073;DHT22;34865;51.046;3.732;2022-08-19T11:44:23;24.80;99.90
23073;DHT22;34865;51.046;3.732;2022-08-19T11:46:49;25.00;99.90
23073;DHT22;34865;51.046;3.732;2022-08-19T11:49:17;25.00;99.90
23073;DHT22;34865;51.046;3.732;2022-08-19T11:51:44;25.30;99.90
23073;DHT22;34865;51.046;3.732;2022-08-19T11:54:11;25.70;99.90
23073;DHT22;34865;51.046;3.732;2022-08-19T11:56:38;26.10;99.90
23073;DHT22;34865;51.046;3.732;2022-08-19T11:59:04;26.30;99.90
23073;DHT22;34865;51.046;3.732;2022-08-19T12:01:30;26.10;99.90
23073;DHT22;34865;51.046;3.732;2022-08-19T12:03:57;25.90;99.90
23073;DHT22;34865;51.046;3.732;2022-08-19T12:06:31;25.60;99.90
23073;DHT22;34865;51.046;3.732;2022-08-19T12:09:02;25.70;99.90
23073;DHT22;34865;51.046;3.732;2022-08-19T12:11:28;25.90;99.90
23073;DHT22;34865;51.046;3.732;2022-08-19T12:13:54;25.90;99.90
23073;DHT22;34865;51.046;3.732;2022-08-19T12:16:23;25.90;99.90
23073;DHT22;34865;51.046;3.732;2022-08-19T12:18:50;26.20;99.90
23073;DHT22;34865;51.046;3.732;2022-08-19T12:21:22;26.20;99.90
23073;DHT22;34865;51.046;3.732;2022-08-19T12:23:50;25.90;99.90
23073;DHT22;34865;51.046;3.732;2022-08-19T12:26:17;25.90;99.90
23073;DHT22;34865;51.046;3.732;2022-08-19T12:28:43;26.00;99.90
23073;DHT22;34865;51.046;3.732;2022-08-19T12:31:10;26.10;99.90
23073;DHT22;34865;51.046;3.732;2022-08-19T12:33:40;26.30;99.90
23073;DHT22;34865;51.046;3.732;2022-08-19T12:36:08;26.40;99.90
23073;DHT22;34865;51.046;3.732;2022-08-19T12:38:35;26.10;99.90
23073;DHT22;34865;51.046;3.732;2022-08-19T12:41:01;25.70;99.90
23073;DHT22;34865;51.046;3.732;2022-08-19T12:43:30;25.50;99.90
23073;DHT22;34865;51.046;3.732;2022-08-19T12:45:56;25.30;99.90
23073;DHT22;34865;51.046;3.732;2022-08-19T12:48:21;25.00;99.90
23073;DHT22;34865;51.046;3.732;2022-08-19T12:50:47;25.20;99.90
23073;DHT22;34865;51.046;3.732;2022-08-19T12:53:14;24.90;99.90
23073;DHT22;34865;51.046;3.732;2022-08-19T12:55:40;25.10;99.90
23073;DHT22;34865;51.046;3.732;2022-08-19T12:58:06;25.20;99.90
23073;DHT22;34865;51.046;3.732;2022-08-19T13:00:32;25.40;99.90
23073;DHT22;34865;51.046;3.732;2022-08-19T13:02:58;25.20;99.90
23073;DHT22;34865;51.046;3.732;2022-08-19T13:05:27;25.30;99.90
23073;DHT22;34865;51.046;3.732;2022-08-19T13:07:55;25.60;99.90
23073;DHT22;34865;51.046;3.732;2022-08-19T13:10:29;25.80;99.90
23073;DHT22;34865;51.046;3.732;2022-08-19T13:12:55;25.80;99.90
23073;DHT22;34865;51.046;3.732;2022-08-19T13:15:23;25.90;99.90
23073;DHT22;34865;51.046;3.732;2022-08-19T13:17:51;25.80;99.90
23073;DHT22;34865;51.046;3.732;2022-08-19T13:20:26;25.60;99.90
23073;DHT22;34865;51.046;3.732;2022-08-19T13:22:51;25.50;99.90
23073;DHT22;34865;51.046;3.732;2022-08-19T13:25:18;24.60;99.90
23073;DHT22;34865;51.046;3.732;2022-08-19T13:27:45;23.70;99.90
23073;DHT22;34865;51.046;3.732;2022-08-19T13:30:14;22.90;99.90
23073;DHT22;34865;51.046;3.732;2022-08-19T13:32:58;22.40;99.90
23073;DHT22;34865;51.046;3.732;2022-08-19T13:35:48;22.00;99.90
23073;DHT22;34865;51.046;3.732;2022-08-19T13:38:18;21.80;99.90
23073;DHT22;34865;51.046;3.732;2022-08-19T13:40:44;21.50;99.90
23073;DHT22;34865;51.046;3.732;2022-08-19T13:43:10;21.50;99.90
23073;DHT22;34865;51.046;3.732;2022-08-19T13:45:36;21.50;99.90
23073;DHT22;34865;51.046;3.732;2022-08-19T13:48:04;21.60;99.90
23073;DHT22;34865;51.046;3.732;2022-08-19T13:50:37;21.70;99.90
23073;DHT22;34865;51.046;3.732;2022-08-19T13:53:03;21.70;99.90
23073;DHT22;34865;51.046;3.732;2022-08-19T13:55:29;21.70;99.90
23073;DHT22;34865;51.046;3.732;2022-08-19T13:57:58;21.70;99.90
23073;DHT22;34865;51.046;3.732;2022-08-19T14:00:31;21.70;99.90
23073;DHT22;34865;51.046;3.732;2022-08-19T14:02:57;21.80;99.90
23073;DHT22;34865;51.046;3.732;2022-08-19T14:05:25;22.10;99.90
23073;DHT22;34865;51.046;3.732;2022-08-19T14:07:51;22.40;99.90
23073;DHT22;34865;51.046;3.732;2022-08-19T14:10:17;22.60;99.90
23073;DHT22;34865;51.046;3.732;2022-08-19T14:12:44;22.60;99.90
23073;DHT22;34865;51.046;3.732;2022-08-19T14:15:11;22.60;99.90
23073;DHT22;34865;51.046;3.732;2022-08-19T14:17:44;22.60;99.90
23073;DHT22;34865;51.046;3.732;2022-08-19T14:20:13;22.60;99.90
23073;DHT22;34865;51.046;3.732;2022-08-19T14:22:41;22.60;99.90
23073;DHT22;34865;51.046;3.732;2022-08-19T14:25:10;22.60;99.90
23073;DHT22;34865;51.046;3.732;2022-08-19T14:27:38;22.50;99.90
23073;DHT22;34865;51.046;3.732;2022-08-19T14:30:08;22.60;99.90
23073;DHT22;34865;51.046;3.732;2022-08-19T14:32:34;22.60;99.90
23073;DHT22;34865;51.046;3.732;2022-08-19T14:35:01;22.50;99.90
23073;DHT22;34865;51.046;3.732;2022-08-19T14:37:27;22.40;99.90
23073;DHT22;34865;51.046;3.732;2022-08-19T14:39:53;22.60;99.90
23073;DHT22;34865;51.046;3.732;2022-08-19T14:42:19;22.70;99.90
23073;DHT22;34865;51.046;3.732;2022-08-19T14:44:45;23.00;99.90
23073;DHT22;34865;51.046;3.732;2022-08-19T14:47:10;23.30;99.90
23073;DHT22;34865;51.046;3.732;2022-08-19T14:49:36;23.40;99.90
23073;DHT22;34865;51.046;3.732;2022-08-19T14:52:03;23.50;99.90
23073;DHT22;34865;51.046;3.732;2022-08-19T14:54:29;23.50;99.90
23073;DHT22;34865;51.046;3.732;2022-08-19T14:56:55;23.40;99.90
23073;DHT22;34865;51.046;3.732;2022-08-19T14:59:21;23.50;99.90
23073;DHT22;34865;51.046;3.732;2022-08-19T15:01:46;23.40;99.90
23073;DHT22;34865;51.046;3.732;2022-08-19T15:04:12;23.20;99.90
23073;DHT22;34865;51.046;3.732;2022-08-19T15:06:38;23.20;99.90
23073;DHT22;34865;51.046;3.732;2022-08-19T15:09:05;23.20;99.90
23073;DHT22;34865;51.046;3.732;2022-08-19T15:11:30;23.30;99.90
23073;DHT22;34865;51.046;3.732;2022-08-19T15:13:58;23.30;99.90
23073;DHT22;34865;51.046;3.732;2022-08-19T15:16:25;23.50;99.90
23073;DHT22;34865;51.046;3.732;2022-08-19T15:18:57;23.40;99.90
23073;DHT22;34865;51.046;3.732;2022-08-19T15:21:24;23.20;99.90
23073;DHT22;34865;51.046;3.732;2022-08-19T15:23:51;23.10;99.90
23073;DHT22;34865;51.046;3.732;2022-08-19T15:26:17;23.30;99.90
23073;DHT22;34865;51.046;3.732;2022-08-19T15:28:45;23.40;99.90
23073;DHT22;34865;51.046;3.732;2022-08-19T15:31:12;23.70;99.90
23073;DHT22;34865;51.046;3.732;2022-08-19T15:33:39;23.80;99.90
23073;DHT22;34865;51.046;3.732;2022-08-19T15:36:07;23.80;99.90
23073;DHT22;34865;51.046;3.732;2022-08-19T15:38:34;23.80;99.90
23073;DHT22;34865;51.046;3.732;2022-08-19T15:41:04;23.80;99.90
23073;DHT22;34865;51.046;3.732;2022-08-19T15:44:07;23.80;99.90
23073;DHT22;34865;51.046;3.732;2022-08-19T15:46:36;23.90;99.90